createdAt,value
2019-03-31T00:01:12.724Z,5.73
2019-03-31T00:03:45.343Z,5.72
2019-03-31T00:06:18.355Z,5.69
2019-03-31T00:08:51.012Z,5.67
2019-03-31T00:11:23.642Z,5.65
2019-03-31T00:13:56.266Z,5.61
2019-03-31T00:16:28.869Z,5.58
2019-03-31T00:19:01.774Z,5.57
2019-03-31T00:21:34.845Z,5.56
2019-03-31T00:24:07.576Z,5.52
2019-03-31T00:26:40.230Z,5.49
2019-03-31T00:29:14.326Z,5.47
2019-03-31T00:31:46.918Z,5.43
2019-03-31T00:34:19.556Z,5.40
2019-03-31T00:36:52.368Z,5.36
2019-03-31T00:39:25.033Z,5.32
2019-03-31T00:42:03.362Z,5.30
2019-03-31T00:44:36.247Z,5.28
2019-03-31T00:47:08.815Z,5.25
2019-03-31T00:49:41.826Z,5.22
2019-03-31T00:52:14.453Z,5.19
2019-03-31T00:54:47.584Z,5.16
2019-03-31T00:57:20.154Z,5.14
2019-03-31T00:59:52.948Z,5.12
2019-03-31T01:02:28.292Z,5.09
2019-03-31T01:05:01.474Z,5.07
2019-03-31T01:07:35.997Z,5.04
2019-03-31T01:13:40.238Z,5.00
2019-03-31T01:19:44.379Z,4.94
2019-03-31T01:29:07.682Z,4.86
2019-03-31T01:38:52.184Z,4.82
2019-03-31T09:25:47.505Z,16.90
2019-03-31T09:28:18.638Z,16.79
2019-03-31T09:30:51.413Z,15.96
2019-03-31T09:33:25.102Z,16.15
2019-03-31T09:36:15.515Z,16.34
2019-03-31T09:38:38.264Z,16.98
2019-03-31T09:41:11.245Z,17.31
2019-03-31T09:43:43.813Z,16.82
2019-03-31T09:46:16.721Z,16.85
2019-03-31T09:48:49.284Z,16.58
2019-03-31T09:51:22.062Z,16.68
2019-03-31T09:53:54.834Z,16.75
2019-03-31T09:56:27.569Z,16.79
2019-03-31T09:59:00.157Z,17.40
2019-03-31T10:01:32.826Z,17.05
2019-03-31T10:04:05.415Z,16.74
2019-03-31T10:06:38.288Z,16.93
2019-03-31T10:09:11.129Z,17.27
2019-03-31T10:11:44.040Z,16.42
2019-03-31T10:14:16.625Z,15.93
2019-03-31T10:16:49.496Z,16.02
2019-03-31T10:19:22.132Z,16.01
2019-03-31T10:21:55.049Z,15.84
2019-03-31T10:24:28.080Z,16.02
2019-03-31T10:27:01.025Z,16.15
2019-03-31T10:29:33.825Z,16.17
2019-03-31T10:32:06.698Z,16.63
2019-03-31T10:34:39.292Z,16.30
2019-03-31T10:37:12.264Z,16.54
2019-03-31T10:39:44.901Z,16.51
2019-03-31T10:42:17.742Z,16.91
2019-03-31T10:44:50.367Z,17.44
2019-03-31T10:47:23.309Z,17.74
2019-03-31T10:49:55.905Z,17.87
2019-03-31T10:52:28.566Z,18.07
2019-03-31T10:55:01.201Z,18.03
2019-03-31T10:57:33.830Z,17.78
2019-03-31T11:00:07.428Z,17.97
2019-03-31T11:02:40.308Z,18.21
2019-03-31T11:05:13.431Z,18.42
2019-03-31T11:07:46.145Z,18.60
2019-03-31T11:10:21.378Z,18.62
2019-03-31T11:12:55.525Z,18.78
2019-03-31T11:15:28.130Z,18.93
2019-03-31T11:18:01.098Z,18.90
2019-03-31T11:20:33.727Z,18.99
2019-03-31T11:23:22.491Z,18.78
2019-03-31T11:25:55.409Z,18.54
2019-03-31T11:28:28.311Z,18.56
2019-03-31T11:31:00.973Z,18.76
2019-03-31T11:33:34.101Z,19.05
2019-03-31T11:36:06.709Z,19.30
2019-03-31T11:38:39.531Z,19.83
2019-03-31T11:41:12.412Z,20.28
2019-03-31T11:43:45.206Z,20.64
2019-03-31T11:46:17.807Z,20.63
2019-03-31T11:48:50.680Z,20.75
2019-03-31T11:51:23.264Z,20.09
2019-03-31T11:53:55.985Z,20.15
2019-03-31T11:56:28.798Z,20.34
2019-03-31T11:59:01.569Z,20.72
2019-03-31T12:01:34.200Z,20.06
2019-03-31T12:04:07.382Z,20.00
2019-03-31T12:06:40.139Z,19.88
2019-03-31T12:09:13.042Z,19.69
2019-03-31T12:11:46.056Z,20.14
2019-03-31T12:14:18.710Z,20.66
2019-03-31T12:16:51.696Z,20.18
2019-03-31T12:19:24.406Z,20.45
2019-03-31T12:21:57.026Z,20.76
2019-03-31T12:24:29.779Z,20.87
2019-03-31T12:27:03.015Z,20.93
2019-03-31T12:29:35.942Z,21.14
2019-03-31T12:32:08.548Z,21.20
2019-03-31T12:34:41.269Z,20.09
2019-03-31T12:37:13.932Z,20.59
2019-03-31T12:39:46.846Z,22.00
2019-03-31T12:42:19.665Z,23.26
2019-03-31T12:44:52.528Z,23.93
2019-03-31T12:47:25.196Z,23.55
2019-03-31T12:49:58.245Z,21.70
2019-03-31T12:52:30.870Z,20.52
2019-03-31T12:55:03.853Z,19.85
2019-03-31T12:57:36.768Z,20.18
2019-03-31T13:00:09.998Z,22.09
2019-03-31T13:02:42.682Z,22.72
2019-03-31T13:05:15.594Z,21.43
2019-03-31T13:07:56.133Z,19.44
2019-03-31T13:10:22.801Z,19.34
2019-03-31T13:12:56.624Z,18.42
2019-03-31T13:15:29.383Z,18.43
2019-03-31T13:18:02.028Z,18.76
2019-03-31T13:20:34.960Z,20.16
2019-03-31T13:23:07.603Z,23.08
2019-03-31T13:25:40.516Z,25.96
2019-03-31T13:28:13.561Z,27.85
2019-03-31T13:30:46.283Z,29.04
2019-03-31T13:33:18.851Z,30.75
2019-03-31T13:35:53.272Z,32.15
2019-03-31T13:38:26.071Z,33.11
2019-03-31T13:40:58.719Z,32.88
2019-03-31T13:43:35.585Z,32.03
2019-03-31T13:46:08.452Z,30.47
2019-03-31T13:48:41.132Z,27.24
2019-03-31T13:51:14.073Z,24.48
2019-03-31T13:53:46.884Z,22.73
2019-03-31T13:56:20.240Z,21.37
2019-03-31T13:58:53.353Z,20.64
2019-03-31T14:01:26.357Z,19.98
2019-03-31T14:03:59.136Z,19.51
2019-03-31T14:06:31.888Z,19.15
2019-03-31T14:09:06.785Z,18.80
2019-03-31T14:11:39.840Z,18.51
2019-03-31T14:14:17.640Z,18.19
2019-03-31T14:16:50.389Z,17.99
2019-03-31T14:19:23.056Z,17.78
2019-03-31T14:21:56.992Z,17.43
2019-03-31T14:24:29.662Z,17.43
2019-03-31T14:27:02.783Z,18.66
2019-03-31T14:29:35.462Z,18.57
2019-03-31T14:32:08.246Z,17.94
2019-03-31T14:34:40.852Z,17.26
2019-03-31T14:37:13.650Z,17.44
2019-03-31T14:39:46.285Z,17.28
2019-03-31T14:42:19.283Z,17.41
2019-03-31T14:44:51.999Z,17.88
2019-03-31T14:47:25.194Z,17.98
2019-03-31T14:49:57.941Z,20.02
2019-03-31T14:52:30.917Z,24.29
2019-03-31T14:55:03.676Z,24.24
2019-03-31T14:57:36.712Z,22.84
2019-03-31T15:00:15.218Z,21.34
2019-03-31T15:02:44.744Z,19.01
2019-03-31T15:05:17.366Z,17.70
2019-03-31T15:07:50.384Z,16.92
2019-03-31T15:10:23.057Z,16.73
2019-03-31T15:12:55.807Z,16.75
2019-03-31T15:15:28.752Z,16.09
2019-03-31T15:18:01.516Z,16.30
2019-03-31T15:20:34.291Z,16.54
2019-03-31T15:23:07.199Z,19.39
2019-03-31T15:25:43.005Z,21.75
2019-03-31T15:28:14.424Z,21.78
2019-03-31T15:30:47.108Z,20.77
2019-03-31T15:33:20.033Z,20.09
2019-03-31T15:35:52.648Z,19.54
2019-03-31T15:38:25.618Z,18.25
2019-03-31T15:40:58.287Z,17.36
2019-03-31T15:43:30.912Z,16.51
2019-03-31T15:46:03.639Z,15.91
2019-03-31T15:48:36.256Z,15.45
2019-03-31T15:51:08.853Z,14.89
2019-03-31T15:53:41.797Z,14.67
2019-03-31T15:56:14.743Z,14.73
2019-03-31T15:58:47.656Z,14.61
2019-03-31T16:01:20.379Z,14.44
2019-03-31T16:03:53.066Z,14.95
2019-03-31T16:06:26.300Z,15.16
2019-03-31T16:08:58.268Z,14.80
2019-03-31T16:11:30.034Z,14.13
2019-03-31T16:14:01.905Z,13.88
2019-03-31T16:16:33.935Z,14.04
2019-03-31T16:19:05.723Z,14.21
2019-03-31T16:21:37.507Z,14.01
2019-03-31T16:24:09.376Z,15.49
2019-03-31T16:26:41.193Z,16.99
2019-03-31T16:29:13.271Z,17.61
2019-03-31T16:31:45.316Z,16.41
2019-03-31T16:34:17.331Z,14.93
2019-03-31T16:36:49.279Z,14.46
2019-03-31T16:39:21.445Z,14.03
2019-03-31T16:41:53.268Z,13.64
2019-03-31T16:44:25.259Z,13.61
2019-03-31T16:46:57.420Z,13.41
2019-03-31T16:49:29.527Z,13.24
2019-03-31T16:52:02.474Z,12.99
2019-03-31T16:54:34.518Z,12.76
2019-03-31T16:57:06.304Z,12.59
2019-03-31T16:59:38.162Z,12.42
2019-03-31T17:02:14.065Z,12.27
2019-03-31T17:04:46.140Z,12.09
2019-03-31T17:07:17.928Z,11.86
2019-03-31T17:09:51.702Z,11.85
2019-03-31T17:12:23.512Z,11.70
2019-03-31T17:14:55.581Z,11.54
2019-03-31T17:17:27.358Z,11.45
2019-03-31T17:19:59.276Z,11.36
2019-03-31T17:22:31.154Z,11.32
2019-03-31T17:25:03.378Z,11.20
2019-03-31T17:27:35.368Z,11.06
2019-03-31T17:30:10.367Z,10.96
2019-03-31T17:32:55.212Z,10.94
2019-03-31T17:35:27.378Z,10.78
2019-03-31T17:37:59.201Z,10.79
2019-03-31T17:40:31.312Z,10.70
2019-03-31T17:43:03.280Z,10.66
2019-03-31T17:45:35.196Z,10.64
2019-03-31T17:48:06.995Z,10.54
2019-03-31T17:50:39.335Z,10.51
2019-03-31T17:53:11.261Z,10.42
2019-03-31T17:55:43.396Z,10.39
2019-03-31T17:58:15.324Z,10.36
2019-03-31T18:00:47.459Z,10.37
2019-03-31T18:03:19.689Z,10.28
2019-03-31T18:05:51.926Z,10.08
2019-03-31T18:08:23.915Z,10.13
2019-03-31T18:10:56.083Z,10.11
2019-03-31T18:13:28.056Z,10.03
2019-03-31T18:16:00.593Z,10.02
2019-03-31T18:18:32.916Z,9.97
2019-03-31T18:21:05.404Z,9.93
2019-03-31T18:23:37.460Z,9.84
2019-03-31T18:26:09.871Z,9.87
2019-03-31T18:28:43.925Z,9.77
2019-03-31T18:31:16.543Z,9.71
2019-03-31T18:33:49.040Z,9.76
2019-03-31T18:36:35.516Z,9.73
2019-03-31T18:38:55.141Z,9.66
2019-03-31T18:41:28.730Z,9.56
2019-03-31T18:44:00.671Z,9.59
2019-03-31T18:46:32.680Z,9.52
2019-03-31T18:49:04.861Z,9.48
2019-03-31T18:51:37.497Z,9.48
2019-03-31T18:54:31.164Z,9.41
2019-03-31T18:57:12.310Z,9.38
2019-03-31T19:00:01.817Z,9.28
2019-03-31T19:02:59.138Z,9.22
2019-03-31T19:05:59.368Z,9.17
2019-03-31T19:08:41.301Z,9.09
2019-03-31T19:11:41.265Z,9.06
2019-03-31T19:14:41.266Z,9.00
2019-03-31T19:17:26.135Z,8.94
2019-03-31T19:20:18.516Z,8.83
2019-03-31T19:23:07.120Z,8.77
2019-03-31T19:26:01.392Z,8.71
2019-03-31T19:29:01.636Z,8.66
2019-03-31T19:31:55.086Z,8.61
2019-03-31T19:34:44.913Z,8.52
2019-03-31T19:37:49.078Z,8.45
2019-03-31T19:41:03.308Z,8.34
2019-03-31T19:43:44.913Z,8.24
2019-03-31T19:46:22.920Z,8.14
2019-03-31T19:49:23.341Z,8.09
2019-03-31T19:52:09.064Z,8.05
2019-03-31T19:55:03.031Z,7.97
2019-03-31T19:57:59.362Z,7.91
2019-03-31T20:00:38.600Z,7.77
2019-03-31T20:03:29.511Z,7.67
2019-03-31T20:06:14.038Z,7.58
2019-03-31T20:09:07.920Z,7.47
2019-03-31T20:11:46.483Z,7.51
2019-03-31T20:14:52.275Z,7.52
2019-03-31T20:17:46.783Z,7.41
2019-03-31T20:20:40.541Z,7.38
2019-03-31T20:23:34.748Z,7.29
2019-03-31T20:26:28.581Z,7.23
2019-03-31T20:29:08.861Z,7.15
2019-03-31T20:31:57.896Z,7.07
2019-03-31T20:35:01.030Z,7.05
2019-03-31T20:37:41.829Z,6.99
2019-03-31T20:40:32.713Z,6.98
2019-03-31T20:43:29.562Z,6.89
2019-03-31T20:46:04.295Z,6.79
2019-03-31T20:48:35.701Z,6.69
2019-03-31T20:51:07.908Z,6.66
2019-03-31T20:53:39.814Z,6.67
2019-03-31T20:56:11.845Z,6.63
2019-03-31T20:58:43.647Z,6.60
2019-03-31T21:01:15.680Z,6.55
2019-03-31T21:03:47.457Z,6.52
2019-03-31T21:06:21.857Z,6.47
2019-03-31T21:08:53.732Z,6.44
2019-03-31T21:11:26.070Z,6.42
2019-03-31T21:13:59.216Z,6.38
2019-03-31T21:16:31.086Z,6.34
2019-03-31T21:19:02.915Z,6.28
2019-03-31T21:21:34.959Z,6.26
2019-03-31T21:24:06.742Z,6.21
2019-03-31T21:26:38.990Z,6.16
2019-03-31T21:29:10.914Z,6.11
2019-03-31T21:31:43.115Z,6.07
2019-03-31T21:34:14.932Z,6.02
2019-03-31T21:36:46.970Z,5.94
2019-03-31T21:39:18.845Z,5.91
2019-03-31T21:41:51.178Z,5.87
2019-03-31T21:44:23.033Z,5.83
2019-03-31T21:46:56.055Z,5.74
2019-03-31T21:49:28.320Z,5.71
2019-03-31T21:52:00.355Z,5.65
2019-03-31T21:54:32.146Z,5.60
2019-03-31T21:57:04.382Z,5.58
2019-03-31T21:59:36.207Z,5.53
2019-03-31T22:02:08.307Z,5.47
2019-03-31T22:04:40.145Z,5.40
2019-03-31T22:07:12.400Z,5.33
2019-03-31T22:09:44.195Z,5.29
2019-03-31T22:12:16.416Z,5.25
2019-03-31T22:14:48.238Z,5.20
2019-03-31T22:17:21.633Z,5.16
2019-03-31T22:19:53.447Z,5.11
2019-03-31T22:22:25.452Z,5.06
2019-03-31T22:24:57.262Z,5.03
2019-03-31T22:27:29.434Z,4.95
2019-03-31T22:30:01.292Z,4.89
2019-03-31T22:32:35.260Z,4.81
2019-03-31T22:35:08.142Z,4.74
2019-03-31T22:37:40.608Z,4.72
2019-03-31T22:40:12.590Z,4.66
2019-03-31T22:42:44.941Z,4.61
2019-03-31T22:45:19.072Z,4.58
2019-03-31T22:47:54.311Z,4.49
2019-03-31T22:50:26.120Z,4.44
2019-03-31T22:52:58.140Z,4.38
2019-03-31T22:55:29.921Z,4.31
2019-03-31T22:58:02.275Z,4.23
2019-03-31T23:00:34.099Z,4.20
2019-03-31T23:03:06.057Z,4.18
2019-03-31T23:05:37.797Z,4.13
2019-03-31T23:08:09.904Z,4.07
2019-03-31T23:10:41.645Z,4.02
2019-03-31T23:13:13.937Z,3.95
2019-03-31T23:15:45.697Z,3.93
2019-03-31T23:18:17.658Z,3.87
2019-03-31T23:20:51.800Z,3.81
2019-03-31T23:23:23.831Z,3.77
2019-03-31T23:25:55.809Z,3.71
2019-03-31T23:28:28.066Z,3.66
2019-03-31T23:31:03.292Z,3.64
2019-03-31T23:33:33.539Z,3.60
2019-03-31T23:36:05.385Z,3.53
2019-03-31T23:38:37.360Z,3.48
2019-03-31T23:41:09.250Z,3.39
2019-03-31T23:43:41.692Z,3.35
2019-03-31T23:46:13.970Z,3.28
2019-03-31T23:48:46.101Z,3.24
2019-03-31T23:51:17.834Z,3.15
2019-03-31T23:53:49.760Z,3.13
2019-03-31T23:56:21.551Z,3.06
2019-03-31T23:58:53.899Z,2.99
